createdAt,value
2022-11-23T00:01:48.909Z,5.93
2022-11-23T00:04:18.329Z,7.70
2022-11-23T00:06:50.347Z,6.80
2022-11-23T00:09:17.414Z,9.23
2022-11-23T00:11:49.525Z,9.47
2022-11-23T00:14:21.295Z,6.73
2022-11-23T00:16:53.194Z,8.87
2022-11-23T00:19:20.457Z,8.27
2022-11-23T00:21:55.322Z,12.27
2022-11-23T00:24:22.541Z,6.03
2022-11-23T00:26:51.795Z,9.73
2022-11-23T00:29:18.890Z,9.47
2022-11-23T00:31:45.986Z,8.57
2022-11-23T00:34:15.738Z,8.87
2022-11-23T00:36:47.345Z,6.60
2022-11-23T00:39:16.800Z,5.70
2022-11-23T00:41:43.884Z,9.97
2022-11-23T00:44:13.355Z,8.20
2022-11-23T00:46:40.558Z,7.80
2022-11-23T00:49:10.178Z,8.97
2022-11-23T00:51:40.186Z,7.87
2022-11-23T00:54:13.141Z,7.90
2022-11-23T00:56:42.564Z,7.33
2022-11-23T00:59:13.022Z,6.80
2022-11-23T01:01:40.169Z,4.87
2022-11-23T01:04:09.712Z,9.20
2022-11-23T01:06:39.453Z,7.40
2022-11-23T01:09:18.063Z,10.80
2022-11-23T01:11:47.428Z,6.80
2022-11-23T01:14:17.518Z,8.33
2022-11-23T01:16:49.633Z,7.90
2022-11-23T01:19:22.016Z,6.80
2022-11-23T01:21:51.711Z,11.13
2022-11-23T01:24:21.459Z,10.50
2022-11-23T01:26:55.359Z,11.17
2022-11-23T01:29:23.689Z,7.23
2022-11-23T01:31:50.786Z,12.20
2022-11-23T01:34:20.192Z,8.67
2022-11-23T01:36:49.516Z,7.37
2022-11-23T01:39:16.620Z,10.23
2022-11-23T01:41:50.489Z,8.27
2022-11-23T01:44:34.186Z,9.90
2022-11-23T01:47:11.108Z,12.70
2022-11-23T01:49:46.248Z,14.20
2022-11-23T01:52:22.058Z,10.90
2022-11-23T01:54:54.797Z,9.70
2022-11-23T01:57:27.089Z,6.00
2022-11-23T01:59:57.384Z,7.77
2022-11-23T02:02:28.211Z,10.27
2022-11-23T02:04:59.643Z,12.87
2022-11-23T02:07:27.049Z,10.60
2022-11-23T02:09:54.682Z,14.07
2022-11-23T02:12:24.309Z,11.97
2022-11-23T02:14:56.457Z,9.90
2022-11-23T02:17:25.647Z,9.90
2022-11-23T02:20:13.470Z,8.47
2022-11-23T02:23:07.016Z,13.97
2022-11-23T02:25:45.489Z,8.80
2022-11-23T02:28:19.662Z,9.13
2022-11-23T02:30:51.251Z,11.20
2022-11-23T02:33:18.442Z,8.93
2022-11-23T02:35:50.312Z,10.97
2022-11-23T02:38:27.328Z,9.13
2022-11-23T02:40:54.470Z,12.33
2022-11-23T02:43:21.842Z,6.57
2022-11-23T02:45:56.051Z,14.13
2022-11-23T02:48:28.328Z,13.30
2022-11-23T02:50:57.775Z,13.87
2022-11-23T02:53:27.318Z,14.40
2022-11-23T02:55:54.387Z,14.17
2022-11-23T02:58:21.534Z,12.03
2022-11-23T03:00:48.922Z,13.17
2022-11-23T03:03:18.319Z,12.43
2022-11-23T03:05:45.537Z,8.97
2022-11-23T03:08:12.642Z,10.97
2022-11-23T03:10:39.761Z,13.70
2022-11-23T03:13:09.831Z,9.10
2022-11-23T03:15:39.587Z,11.70
2022-11-23T03:18:06.791Z,16.73
2022-11-23T03:20:36.720Z,8.57
2022-11-23T03:23:05.916Z,10.97
2022-11-23T03:25:37.576Z,12.50
2022-11-23T03:28:04.914Z,9.87
2022-11-23T03:30:32.138Z,8.80
2022-11-23T03:33:01.600Z,10.10
2022-11-23T03:35:33.476Z,14.23
2022-11-23T03:38:00.556Z,8.60
2022-11-23T03:40:27.670Z,8.27
2022-11-23T03:42:59.292Z,11.93
2022-11-23T03:45:26.389Z,12.33
2022-11-23T03:47:53.715Z,10.23
2022-11-23T03:50:25.581Z,13.57
2022-11-23T03:52:52.718Z,13.27
2022-11-23T03:55:22.607Z,12.47
2022-11-23T03:57:54.320Z,13.80
2022-11-23T04:00:23.505Z,11.57
2022-11-23T04:02:55.462Z,10.23
2022-11-23T04:05:27.850Z,12.07
2022-11-23T04:07:57.052Z,9.30
2022-11-23T04:10:26.548Z,10.77
2022-11-23T04:12:55.947Z,10.33
2022-11-23T04:15:25.506Z,11.83
2022-11-23T04:17:52.670Z,11.50
2022-11-23T04:20:19.708Z,9.30
2022-11-23T04:22:46.816Z,12.00
2022-11-23T04:25:16.362Z,13.83
2022-11-23T04:27:46.368Z,11.97
2022-11-23T04:30:18.433Z,6.60
2022-11-23T04:32:47.572Z,10.37
2022-11-23T04:35:14.725Z,9.73
2022-11-23T04:37:41.837Z,11.50
2022-11-23T04:40:12.335Z,11.40
2022-11-23T04:42:41.934Z,9.20
2022-11-23T04:45:12.163Z,16.93
2022-11-23T04:47:41.964Z,9.03
2022-11-23T04:50:09.193Z,12.20
2022-11-23T04:52:38.535Z,11.57
2022-11-23T04:55:06.141Z,9.23
2022-11-23T04:57:35.227Z,10.63
2022-11-23T05:00:02.868Z,10.07
2022-11-23T05:02:29.985Z,7.57
2022-11-23T05:04:57.071Z,11.53
2022-11-23T05:07:29.047Z,7.87
2022-11-23T05:09:56.208Z,10.27
2022-11-23T05:12:27.469Z,10.17
2022-11-23T05:14:56.743Z,7.53
2022-11-23T05:17:26.185Z,13.43
2022-11-23T05:19:53.413Z,8.50
2022-11-23T05:22:23.135Z,9.77
2022-11-23T05:24:50.266Z,14.33
2022-11-23T05:27:17.408Z,12.33
2022-11-23T05:29:44.536Z,14.37
2022-11-23T05:32:11.592Z,9.87
2022-11-23T05:34:38.776Z,12.67
2022-11-23T05:37:05.906Z,11.47
2022-11-23T05:39:35.316Z,12.17
2022-11-23T05:42:02.460Z,11.03
2022-11-23T05:44:31.861Z,13.33
2022-11-23T05:46:59.407Z,15.17
2022-11-23T05:49:26.609Z,12.73
2022-11-23T05:51:56.194Z,10.60
2022-11-23T05:54:25.642Z,11.60
2022-11-23T05:56:52.731Z,12.00
2022-11-23T05:59:24.700Z,10.33
2022-11-23T06:01:52.237Z,11.80
2022-11-23T06:04:19.390Z,9.37
2022-11-23T06:06:46.574Z,9.30
2022-11-23T06:09:13.673Z,14.07
2022-11-23T06:11:40.859Z,12.17
2022-11-23T06:14:13.947Z,11.90
2022-11-23T06:16:46.175Z,9.03
2022-11-23T06:19:13.454Z,12.00
2022-11-23T06:21:50.122Z,13.53
2022-11-23T06:24:17.651Z,14.83
2022-11-23T06:26:44.828Z,12.50
2022-11-23T06:29:17.102Z,9.10
2022-11-23T06:31:51.461Z,10.60
2022-11-23T06:34:20.650Z,12.80
2022-11-23T06:36:47.742Z,8.90
2022-11-23T06:39:14.829Z,7.93
2022-11-23T06:41:41.982Z,11.87
2022-11-23T06:44:09.235Z,12.50
2022-11-23T06:46:38.643Z,11.90
2022-11-23T06:49:06.211Z,16.50
2022-11-23T06:51:37.886Z,13.43
2022-11-23T06:54:05.011Z,10.57
2022-11-23T06:56:32.571Z,12.77
2022-11-23T06:58:59.893Z,10.63
2022-11-23T07:01:27.126Z,11.43
2022-11-23T07:03:54.389Z,11.03
2022-11-23T07:06:26.165Z,11.30
2022-11-23T07:08:55.380Z,12.17
2022-11-23T07:11:22.487Z,13.53
2022-11-23T07:13:53.734Z,9.33
2022-11-23T07:16:25.190Z,13.53
2022-11-23T07:18:52.587Z,15.33
2022-11-23T07:21:19.748Z,11.40
2022-11-23T07:23:46.863Z,9.63
2022-11-23T07:26:14.014Z,8.07
2022-11-23T07:28:41.124Z,12.73
2022-11-23T07:31:10.691Z,11.10
2022-11-23T07:33:40.176Z,11.43
2022-11-23T07:36:14.889Z,13.67
2022-11-23T07:38:42.106Z,12.37
2022-11-23T07:41:09.188Z,10.63
2022-11-23T07:43:40.949Z,14.37
2022-11-23T07:46:10.068Z,11.87
2022-11-23T07:48:37.191Z,8.57
2022-11-23T07:51:04.393Z,11.07
2022-11-23T07:53:31.459Z,11.50
2022-11-23T07:56:03.910Z,13.70
2022-11-23T07:58:33.284Z,14.40
2022-11-23T08:01:02.506Z,10.80
2022-11-23T08:03:31.813Z,9.97
2022-11-23T08:05:59.186Z,13.90
2022-11-23T08:08:26.344Z,10.13
2022-11-23T08:10:55.947Z,13.30
2022-11-23T08:13:25.348Z,14.37
2022-11-23T08:15:55.274Z,11.00
2022-11-23T08:18:27.693Z,13.77
2022-11-23T08:20:54.873Z,14.60
2022-11-23T08:23:22.291Z,13.60
2022-11-23T08:25:49.416Z,10.53
2022-11-23T08:28:16.539Z,10.83
2022-11-23T08:30:46.722Z,10.13
2022-11-23T08:33:14.084Z,12.90
2022-11-23T08:35:42.409Z,12.73
2022-11-23T08:38:13.432Z,13.07
2022-11-23T08:40:40.771Z,10.43
2022-11-23T08:43:08.042Z,9.03
2022-11-23T08:45:37.346Z,9.43
2022-11-23T08:48:12.175Z,11.40
2022-11-23T08:50:44.485Z,8.73
2022-11-23T08:53:14.233Z,10.93
2022-11-23T08:55:43.874Z,10.07
2022-11-23T08:58:13.761Z,9.93
2022-11-23T09:00:43.334Z,9.23
2022-11-23T09:03:11.655Z,8.30
2022-11-23T09:05:43.362Z,9.07
2022-11-23T09:08:12.967Z,11.60
2022-11-23T09:10:40.265Z,12.57
2022-11-23T09:13:09.677Z,9.10
2022-11-23T09:15:41.613Z,8.30
2022-11-23T09:18:13.441Z,8.13
2022-11-23T09:20:43.258Z,9.43
2022-11-23T09:23:14.031Z,7.57
2022-11-23T09:25:50.156Z,8.23
2022-11-23T09:28:19.805Z,12.97
2022-11-23T09:30:51.402Z,9.70
2022-11-23T09:33:21.068Z,6.27
2022-11-23T09:35:57.938Z,7.23
2022-11-23T09:38:51.617Z,10.13
2022-11-23T09:41:36.258Z,5.33
2022-11-23T09:44:10.009Z,9.10
2022-11-23T09:46:58.895Z,12.83
2022-11-23T09:49:36.054Z,8.57
2022-11-23T09:52:03.310Z,15.67
2022-11-23T09:54:40.108Z,9.20
2022-11-23T09:57:10.459Z,9.77
2022-11-23T09:59:47.188Z,12.13
2022-11-23T10:02:25.945Z,8.33
2022-11-23T10:04:57.867Z,8.00
2022-11-23T10:07:50.953Z,11.37
2022-11-23T10:10:36.378Z,5.73
2022-11-23T10:13:25.637Z,6.07
2022-11-23T10:16:08.133Z,4.33
2022-11-23T10:18:47.067Z,6.27
2022-11-23T10:21:41.795Z,5.87
2022-11-23T10:24:09.216Z,9.40
2022-11-23T10:26:40.101Z,4.87
2022-11-23T10:29:25.663Z,4.00
2022-11-23T10:31:57.285Z,5.83
2022-11-23T10:34:48.389Z,5.63
2022-11-23T10:37:18.828Z,6.67
2022-11-23T10:39:48.170Z,9.57
2022-11-23T10:42:24.514Z,9.23
2022-11-23T10:44:57.039Z,7.63
2022-11-23T10:47:54.904Z,5.63
2022-11-23T10:50:32.432Z,7.67
2022-11-23T10:53:23.203Z,8.43
2022-11-23T10:55:55.327Z,6.77
2022-11-23T10:58:29.682Z,5.63
2022-11-23T11:01:03.984Z,4.37
2022-11-23T11:03:36.122Z,6.80
2022-11-23T11:06:09.035Z,6.43
2022-11-23T11:09:17.778Z,7.10
2022-11-23T11:11:52.268Z,5.53
2022-11-23T11:14:23.501Z,7.47
2022-11-23T11:16:56.335Z,7.37
2022-11-23T11:19:31.997Z,6.60
2022-11-23T11:22:01.315Z,5.27
2022-11-23T11:24:33.674Z,6.40
2022-11-23T11:27:05.056Z,6.00
2022-11-23T11:29:38.649Z,9.10
2022-11-23T11:32:18.791Z,5.77
2022-11-23T11:35:17.616Z,5.97
2022-11-23T11:37:52.928Z,6.83
2022-11-23T11:40:31.216Z,5.93
2022-11-23T11:43:17.834Z,6.70
2022-11-23T11:46:13.074Z,5.77
2022-11-23T11:48:41.675Z,4.27
2022-11-23T11:51:27.964Z,5.60
2022-11-23T11:54:13.315Z,4.60
2022-11-23T11:57:06.472Z,4.93
2022-11-23T11:59:47.876Z,5.67
2022-11-23T12:02:40.952Z,5.13
2022-11-23T12:05:39.286Z,4.90
2022-11-23T12:08:29.647Z,7.13
2022-11-23T12:11:05.527Z,5.93
2022-11-23T12:13:37.466Z,6.13
2022-11-23T12:16:31.607Z,5.30
2022-11-23T12:19:31.035Z,4.67
2022-11-23T12:22:19.865Z,3.67
2022-11-23T12:25:05.654Z,6.60
2022-11-23T12:28:02.745Z,3.50
2022-11-23T12:30:41.907Z,3.80
2022-11-23T12:33:40.151Z,3.03
2022-11-23T12:36:28.572Z,4.97
2022-11-23T12:39:04.391Z,4.90
2022-11-23T12:41:47.849Z,4.27
2022-11-23T12:44:36.556Z,2.93
2022-11-23T12:47:23.757Z,5.50
2022-11-23T12:50:11.957Z,5.17
2022-11-23T12:52:51.044Z,3.63
2022-11-23T12:55:25.246Z,5.67
2022-11-23T12:58:04.273Z,5.97
2022-11-23T13:00:48.401Z,3.33
2022-11-23T13:03:45.288Z,3.33
2022-11-23T13:06:59.256Z,3.53
2022-11-23T13:09:32.718Z,3.70
2022-11-23T13:12:33.049Z,6.47
2022-11-23T13:15:06.202Z,3.40
2022-11-23T13:17:35.754Z,4.57
2022-11-23T13:20:08.374Z,3.43
2022-11-23T13:22:39.265Z,2.83
2022-11-23T13:25:12.739Z,4.30
2022-11-23T13:27:48.709Z,6.20
2022-11-23T13:31:07.104Z,4.30
2022-11-23T13:33:37.471Z,2.87
2022-11-23T13:36:10.352Z,4.07
2022-11-23T13:38:43.901Z,3.77
2022-11-23T13:41:33.624Z,4.23
2022-11-23T13:44:27.290Z,6.47
2022-11-23T13:47:00.699Z,4.27
2022-11-23T13:49:51.374Z,3.03
2022-11-23T13:52:18.488Z,3.63
2022-11-23T13:55:11.556Z,7.00
2022-11-23T13:57:44.310Z,5.47
2022-11-23T14:00:51.249Z,6.83
2022-11-23T14:03:52.204Z,3.47
2022-11-23T14:06:40.752Z,4.60
2022-11-23T14:09:23.139Z,2.53
2022-11-23T14:11:58.757Z,3.07
2022-11-23T14:14:43.044Z,4.13
2022-11-23T14:17:25.315Z,3.90
2022-11-23T14:20:06.660Z,4.17
2022-11-23T14:22:58.169Z,4.77
2022-11-23T14:25:35.455Z,3.40
2022-11-23T14:28:19.795Z,4.60
2022-11-23T14:31:17.404Z,2.47
2022-11-23T14:34:12.196Z,3.63
2022-11-23T14:36:45.106Z,4.40
2022-11-23T14:39:51.445Z,2.10
2022-11-23T14:42:28.138Z,3.03
2022-11-23T14:45:04.864Z,2.20
2022-11-23T14:47:35.084Z,2.80
2022-11-23T14:50:02.301Z,4.40
2022-11-23T14:52:33.657Z,2.83
2022-11-23T14:55:04.008Z,2.47
2022-11-23T14:57:58.976Z,3.60
2022-11-23T15:00:34.309Z,4.03
2022-11-23T15:03:34.470Z,3.17
2022-11-23T15:06:10.575Z,2.33
2022-11-23T15:09:11.005Z,4.23
2022-11-23T15:11:40.524Z,3.13
2022-11-23T15:14:25.886Z,1.63
2022-11-23T15:16:55.597Z,2.53
2022-11-23T15:19:28.872Z,2.87
2022-11-23T15:21:57.170Z,4.10
2022-11-23T15:24:29.807Z,2.73
2022-11-23T15:27:09.484Z,2.13
2022-11-23T15:29:39.994Z,1.90
2022-11-23T15:32:32.126Z,2.70
2022-11-23T15:35:04.469Z,3.90
2022-11-23T15:37:32.732Z,2.13
2022-11-23T15:40:00.635Z,2.90
2022-11-23T15:42:32.709Z,2.60
2022-11-23T15:44:59.878Z,4.67
2022-11-23T15:47:31.108Z,2.67
2022-11-23T15:50:08.873Z,2.73
2022-11-23T15:52:40.913Z,4.07
2022-11-23T15:55:19.408Z,3.87
2022-11-23T15:57:56.007Z,3.83
2022-11-23T16:00:25.542Z,4.10
2022-11-23T16:02:53.113Z,3.43
2022-11-23T16:05:22.620Z,2.77
2022-11-23T16:08:01.369Z,2.27
2022-11-23T16:10:35.170Z,3.20
2022-11-23T16:13:06.267Z,1.87
2022-11-23T16:15:37.946Z,3.57
2022-11-23T16:18:27.775Z,2.90
2022-11-23T16:21:05.985Z,2.40
2022-11-23T16:23:49.207Z,4.90
2022-11-23T16:26:17.328Z,3.30
2022-11-23T16:29:00.712Z,2.47
2022-11-23T16:31:39.620Z,2.50
2022-11-23T16:34:17.901Z,3.10
2022-11-23T16:36:47.560Z,2.43
2022-11-23T16:39:14.656Z,3.83
2022-11-23T16:41:46.211Z,3.37
2022-11-23T16:44:13.344Z,4.57
2022-11-23T16:46:44.080Z,4.13
2022-11-23T16:49:23.299Z,6.27
2022-11-23T16:51:57.150Z,3.37
2022-11-23T16:54:25.573Z,2.90
2022-11-23T16:56:55.491Z,2.97
2022-11-23T16:59:27.344Z,4.60
2022-11-23T17:01:57.712Z,3.90
2022-11-23T17:04:27.421Z,6.57
2022-11-23T17:06:54.726Z,5.03
2022-11-23T17:09:24.142Z,6.60
2022-11-23T17:11:51.531Z,3.30
2022-11-23T17:14:20.680Z,5.03
2022-11-23T17:16:51.675Z,4.50
2022-11-23T17:19:23.342Z,4.97
2022-11-23T17:21:50.774Z,4.80
2022-11-23T17:24:20.359Z,6.57
2022-11-23T17:26:57.508Z,4.87
2022-11-23T17:29:24.669Z,5.40
2022-11-23T17:31:52.034Z,4.00
2022-11-23T17:34:21.640Z,4.30
2022-11-23T17:36:53.469Z,5.73
2022-11-23T17:39:27.403Z,5.57
2022-11-23T17:41:56.753Z,6.40
2022-11-23T17:44:30.795Z,7.43
2022-11-23T17:47:02.126Z,6.20
2022-11-23T17:49:29.253Z,6.07
2022-11-23T17:51:56.914Z,5.93
2022-11-23T17:54:28.775Z,7.90
2022-11-23T17:56:58.161Z,8.83
2022-11-23T17:59:30.443Z,7.97
2022-11-23T18:02:02.561Z,7.80
2022-11-23T18:04:29.912Z,6.27
2022-11-23T18:07:02.898Z,8.77
2022-11-23T18:09:32.857Z,7.43
2022-11-23T18:12:02.645Z,6.43
2022-11-23T18:14:34.472Z,7.10
2022-11-23T18:17:01.619Z,9.47
2022-11-23T18:19:28.800Z,7.73
2022-11-23T18:21:58.184Z,6.30
2022-11-23T18:24:27.799Z,9.67
2022-11-23T18:26:57.189Z,6.47
2022-11-23T18:29:28.832Z,6.13
2022-11-23T18:31:55.912Z,8.00
2022-11-23T18:34:23.066Z,8.83
2022-11-23T18:36:57.520Z,9.67
2022-11-23T18:39:24.905Z,11.40
2022-11-23T18:41:54.144Z,7.33
2022-11-23T18:44:21.209Z,8.30
2022-11-23T18:46:49.313Z,11.13
2022-11-23T18:49:18.672Z,11.70
2022-11-23T18:51:48.260Z,10.03
2022-11-23T18:54:17.923Z,11.53
2022-11-23T18:56:48.020Z,9.97
2022-11-23T18:59:34.991Z,10.97
2022-11-23T19:02:04.843Z,11.13
2022-11-23T19:04:32.560Z,10.47
2022-11-23T19:07:02.729Z,9.83
2022-11-23T19:09:32.221Z,10.70
2022-11-23T19:12:02.817Z,12.60
2022-11-23T19:14:29.917Z,10.30
2022-11-23T19:16:57.060Z,10.83
2022-11-23T19:19:24.189Z,9.60
2022-11-23T19:21:53.509Z,12.17
2022-11-23T19:24:20.723Z,12.63
2022-11-23T19:26:47.861Z,13.87
2022-11-23T19:29:23.609Z,11.63
2022-11-23T19:31:55.180Z,10.33
2022-11-23T19:34:24.887Z,15.33
2022-11-23T19:36:54.224Z,12.53
2022-11-23T19:39:23.960Z,10.33
2022-11-23T19:41:53.343Z,12.37
2022-11-23T19:44:20.654Z,12.93
2022-11-23T19:46:47.839Z,9.73
2022-11-23T19:49:17.627Z,10.33
2022-11-23T19:51:51.036Z,11.77
2022-11-23T19:54:20.464Z,12.07
2022-11-23T19:56:50.022Z,14.37
2022-11-23T19:59:22.033Z,9.63
2022-11-23T20:01:49.177Z,13.20
2022-11-23T20:04:16.274Z,13.50
2022-11-23T20:06:45.795Z,12.07
2022-11-23T20:09:19.121Z,15.87
2022-11-23T20:11:51.300Z,15.93
2022-11-23T20:14:19.400Z,12.60
2022-11-23T20:16:47.665Z,16.50
2022-11-23T20:19:14.822Z,15.37
2022-11-23T20:21:46.514Z,12.27
2022-11-23T20:24:15.176Z,18.57
2022-11-23T20:26:42.965Z,15.50
2022-11-23T20:29:14.215Z,12.63
2022-11-23T20:31:41.747Z,12.60
2022-11-23T20:34:16.695Z,15.40
2022-11-23T20:36:45.606Z,14.73
2022-11-23T20:39:16.151Z,18.83
2022-11-23T20:41:43.434Z,17.50
2022-11-23T20:44:14.681Z,15.40
2022-11-23T20:49:34.095Z,16.23
2022-11-23T20:52:02.119Z,17.47
2022-11-23T20:54:29.552Z,14.40
2022-11-23T20:57:01.100Z,17.83
2022-11-23T20:59:28.352Z,15.87
2022-11-23T21:01:57.755Z,15.47
2022-11-23T21:04:27.431Z,15.30
2022-11-23T21:06:55.089Z,18.57
2022-11-23T21:09:24.290Z,11.43
2022-11-23T21:12:09.890Z,14.20
2022-11-23T21:14:37.577Z,20.37
2022-11-23T21:17:05.081Z,14.50
2022-11-23T21:19:35.044Z,13.57
2022-11-23T21:22:08.763Z,16.30
2022-11-23T21:24:36.669Z,13.43
2022-11-23T21:27:05.114Z,12.87
2022-11-23T21:29:32.320Z,19.27
2022-11-23T21:32:01.510Z,13.60
2022-11-23T21:34:29.965Z,15.60
2022-11-23T21:36:59.450Z,13.83
2022-11-23T21:39:29.864Z,15.63
2022-11-23T21:41:59.568Z,18.83
2022-11-23T21:44:26.805Z,17.50
2022-11-23T21:46:56.373Z,17.73
2022-11-23T21:49:27.254Z,19.47
2022-11-23T21:51:58.882Z,16.43
2022-11-23T21:54:28.464Z,13.37
2022-11-23T21:56:57.819Z,17.33
2022-11-23T21:59:29.769Z,10.80
2022-11-23T22:01:57.219Z,16.43
2022-11-23T22:04:26.986Z,10.80
2022-11-23T22:06:56.290Z,18.37
2022-11-23T22:09:30.937Z,15.23
2022-11-23T22:11:58.000Z,15.87
2022-11-23T22:14:29.543Z,12.33
2022-11-23T22:16:59.314Z,12.40
2022-11-23T22:19:29.016Z,16.23
2022-11-23T22:22:00.541Z,12.60
2022-11-23T22:24:27.701Z,14.20
2022-11-23T22:26:59.412Z,16.63
2022-11-23T22:29:28.701Z,14.87
2022-11-23T22:31:55.900Z,15.27
2022-11-23T22:34:23.147Z,12.07
2022-11-23T22:36:53.185Z,14.50
2022-11-23T22:39:23.011Z,12.30
2022-11-23T22:41:52.648Z,17.43
2022-11-23T22:44:19.764Z,13.40
2022-11-23T22:46:46.962Z,11.70
2022-11-23T22:49:16.239Z,14.70
2022-11-23T22:51:43.365Z,14.63
2022-11-23T22:54:12.779Z,11.70
2022-11-23T22:56:42.018Z,14.63
2022-11-23T22:59:13.538Z,12.03
2022-11-23T23:01:40.708Z,13.43
2022-11-23T23:04:07.965Z,8.97
2022-11-23T23:06:38.336Z,13.37
2022-11-23T23:09:07.050Z,15.07
2022-11-23T23:11:35.716Z,11.00
2022-11-23T23:14:08.255Z,10.00
2022-11-23T23:16:40.163Z,10.40
2022-11-23T23:19:12.218Z,8.83
2022-11-23T23:21:41.609Z,15.40
2022-11-23T23:24:09.538Z,7.70
2022-11-23T23:26:38.848Z,14.40
2022-11-23T23:29:08.329Z,14.33
2022-11-23T23:31:42.785Z,9.07
2022-11-23T23:34:09.891Z,8.87
2022-11-23T23:36:39.253Z,11.77
2022-11-23T23:39:12.356Z,12.90
2022-11-23T23:41:39.605Z,12.87
2022-11-23T23:44:11.963Z,11.33
2022-11-23T23:46:39.340Z,15.67
2022-11-23T23:49:08.851Z,8.67
2022-11-23T23:51:36.303Z,16.17
2022-11-23T23:54:06.329Z,13.33
2022-11-23T23:56:37.972Z,15.33
2022-11-23T23:59:07.195Z,15.33
